createdAt,value
2018-07-16T00:00:27.456Z,0.00
2018-07-16T00:01:27.456Z,0.00
2018-07-16T00:02:27.457Z,0.00
2018-07-16T00:03:27.459Z,0.00
2018-07-16T00:04:27.465Z,0.00
2018-07-16T00:05:27.460Z,0.00
2018-07-16T00:06:27.464Z,0.00
2018-07-16T00:07:27.461Z,0.00
2018-07-16T00:08:27.463Z,0.00
2018-07-16T00:09:27.463Z,0.00
2018-07-16T00:10:27.466Z,0.00
2018-07-16T00:11:27.466Z,0.00
2018-07-16T00:12:27.463Z,0.00
2018-07-16T00:13:27.463Z,0.00
2018-07-16T00:14:27.470Z,0.00
2018-07-16T00:15:27.469Z,0.00
2018-07-16T00:16:27.470Z,0.00
2018-07-16T00:17:27.468Z,0.00
2018-07-16T00:18:27.469Z,0.00
2018-07-16T00:19:27.470Z,0.00
2018-07-16T00:20:27.472Z,0.00
2018-07-16T00:21:27.473Z,0.00
2018-07-16T00:22:27.472Z,0.00
2018-07-16T00:23:27.484Z,0.00
2018-07-16T00:24:27.477Z,0.00
2018-07-16T00:25:27.474Z,0.00
2018-07-16T00:26:27.479Z,0.00
2018-07-16T00:27:27.479Z,0.00
2018-07-16T00:28:27.479Z,0.00
2018-07-16T00:29:27.478Z,0.00
2018-07-16T00:30:27.474Z,0.00
2018-07-16T00:31:27.479Z,0.00
2018-07-16T00:32:27.482Z,0.00
2018-07-16T00:33:27.482Z,0.00
2018-07-16T00:34:27.483Z,0.00
2018-07-16T00:35:27.495Z,0.00
2018-07-16T00:36:27.482Z,0.00
2018-07-16T00:37:27.482Z,0.00
2018-07-16T00:38:27.484Z,0.00
2018-07-16T00:39:27.483Z,0.00
2018-07-16T00:40:27.490Z,0.00
2018-07-16T00:41:27.488Z,0.00
2018-07-16T00:42:27.485Z,0.00
2018-07-16T00:43:27.486Z,0.00
2018-07-16T00:44:27.558Z,0.00
2018-07-16T00:45:27.487Z,0.00
2018-07-16T00:46:27.487Z,0.00
2018-07-16T00:47:27.483Z,0.00
2018-07-16T00:48:27.489Z,0.00
2018-07-16T00:49:27.489Z,0.00
2018-07-16T00:50:27.493Z,0.00
2018-07-16T00:51:27.490Z,0.00
2018-07-16T00:52:27.491Z,0.00
2018-07-16T00:53:27.491Z,0.00
2018-07-16T00:54:27.493Z,0.00
2018-07-16T00:55:27.492Z,0.00
2018-07-16T00:56:27.560Z,0.00
2018-07-16T00:57:27.504Z,0.00
2018-07-16T00:58:27.493Z,0.00
2018-07-16T00:59:27.498Z,0.00
2018-07-16T01:00:27.494Z,0.00
2018-07-16T01:01:27.495Z,0.00
2018-07-16T01:02:27.497Z,0.00
2018-07-16T01:03:27.493Z,0.00
2018-07-16T01:04:27.495Z,0.00
2018-07-16T01:05:27.496Z,0.00
2018-07-16T01:06:27.497Z,0.00
2018-07-16T01:07:27.500Z,0.00
2018-07-16T01:08:27.496Z,0.00
2018-07-16T01:09:27.498Z,0.00
2018-07-16T01:10:27.498Z,0.00
2018-07-16T01:11:27.497Z,0.00
2018-07-16T01:12:27.503Z,0.00
2018-07-16T01:13:27.506Z,0.00
2018-07-16T01:14:27.499Z,0.00
2018-07-16T01:15:27.499Z,0.00
2018-07-16T01:16:27.501Z,0.00
2018-07-16T01:17:27.500Z,0.00
2018-07-16T01:18:27.503Z,0.00
2018-07-16T01:19:27.496Z,0.00
2018-07-16T01:20:27.499Z,0.00
2018-07-16T01:21:27.501Z,0.00
2018-07-16T01:22:27.503Z,0.00
2018-07-16T01:23:27.502Z,0.00
2018-07-16T01:24:27.501Z,0.00
2018-07-16T01:25:27.505Z,0.00
2018-07-16T01:26:27.501Z,0.00
2018-07-16T01:27:27.502Z,0.00
2018-07-16T01:28:27.501Z,0.00
2018-07-16T01:29:27.510Z,0.00
2018-07-16T01:30:27.503Z,0.00
2018-07-16T01:31:27.504Z,0.00
2018-07-16T01:32:27.504Z,0.00
2018-07-16T01:33:27.505Z,0.00
2018-07-16T01:34:27.507Z,0.00
2018-07-16T01:35:27.503Z,0.00
2018-07-16T01:36:27.504Z,0.00
2018-07-16T01:37:27.508Z,0.00
2018-07-16T01:38:27.518Z,0.00
2018-07-16T01:39:27.505Z,0.00
2018-07-16T01:40:27.508Z,0.00
2018-07-16T01:41:27.507Z,0.00
2018-07-16T01:42:27.508Z,0.00
2018-07-16T01:43:27.506Z,0.00
2018-07-16T01:44:27.507Z,0.00
2018-07-16T01:45:27.508Z,0.00
2018-07-16T01:46:27.507Z,0.00
2018-07-16T01:47:27.508Z,0.00
2018-07-16T01:48:27.506Z,0.00
2018-07-16T01:49:27.506Z,0.00
2018-07-16T01:50:27.502Z,0.00
2018-07-16T01:51:27.505Z,0.00
2018-07-16T01:52:27.512Z,0.00
2018-07-16T01:53:27.509Z,0.00
2018-07-16T01:54:27.508Z,0.00
2018-07-16T01:55:27.509Z,0.00
2018-07-16T01:56:27.508Z,0.00
2018-07-16T01:57:27.508Z,0.00
2018-07-16T01:58:27.511Z,0.00
2018-07-16T01:59:27.511Z,0.00
2018-07-16T02:00:27.517Z,0.00
2018-07-16T02:01:27.513Z,0.00
2018-07-16T02:02:27.506Z,0.00
2018-07-16T02:03:27.511Z,0.00
2018-07-16T02:04:27.510Z,0.00
2018-07-16T02:05:27.509Z,0.00
2018-07-16T02:06:27.505Z,0.00
2018-07-16T02:07:27.510Z,0.00
2018-07-16T02:08:27.510Z,0.00
2018-07-16T02:09:27.511Z,0.00
2018-07-16T02:10:27.509Z,0.00
2018-07-16T02:11:27.510Z,0.00
2018-07-16T02:12:27.510Z,0.00
2018-07-16T02:13:27.510Z,0.00
2018-07-16T02:14:27.510Z,0.00
2018-07-16T02:15:27.510Z,0.00
2018-07-16T02:16:27.520Z,0.00
2018-07-16T02:17:27.511Z,0.00
2018-07-16T02:18:27.507Z,0.00
2018-07-16T02:19:27.510Z,0.00
2018-07-16T02:20:27.512Z,0.00
2018-07-16T02:21:27.525Z,0.00
2018-07-16T02:22:27.508Z,0.00
2018-07-16T02:23:27.510Z,0.00
2018-07-16T02:24:27.514Z,0.00
2018-07-16T02:25:27.511Z,0.00
2018-07-16T02:26:27.510Z,0.00
2018-07-16T02:27:27.509Z,0.00
2018-07-16T02:28:27.519Z,0.00
2018-07-16T02:29:27.516Z,0.00
2018-07-16T02:30:27.512Z,0.00
2018-07-16T02:31:27.519Z,0.00
2018-07-16T02:32:27.516Z,0.00
2018-07-16T02:33:27.513Z,0.00
2018-07-16T02:34:27.511Z,0.00
2018-07-16T02:35:27.510Z,0.00
2018-07-16T02:36:27.506Z,0.00
2018-07-16T02:37:27.507Z,0.00
2018-07-16T02:38:27.510Z,0.00
2018-07-16T02:39:27.510Z,0.00
2018-07-16T02:40:27.518Z,0.00
2018-07-16T02:41:27.513Z,0.00
2018-07-16T02:42:27.510Z,0.00
2018-07-16T02:43:27.510Z,0.00
2018-07-16T02:44:27.513Z,0.00
2018-07-16T02:45:27.515Z,0.00
2018-07-16T02:46:27.519Z,0.00
2018-07-16T02:47:27.510Z,0.00
2018-07-16T02:48:27.514Z,0.00
2018-07-16T02:49:27.514Z,0.00
2018-07-16T02:50:27.507Z,0.00
2018-07-16T02:51:27.509Z,0.00
2018-07-16T02:52:27.506Z,0.00
2018-07-16T02:53:27.511Z,0.00
2018-07-16T02:54:27.510Z,0.00
2018-07-16T02:55:27.512Z,0.00
2018-07-16T02:56:27.603Z,5.63
2018-07-16T02:57:27.516Z,5.63
2018-07-16T02:58:27.509Z,5.63
2018-07-16T02:59:27.510Z,5.63
2018-07-16T03:00:27.509Z,5.63
2018-07-16T03:01:27.511Z,5.63
2018-07-16T03:02:27.508Z,5.63
2018-07-16T03:03:27.508Z,5.63
2018-07-16T03:04:27.518Z,5.63
2018-07-16T03:05:27.516Z,5.63
2018-07-16T03:06:27.511Z,11.25
2018-07-16T03:07:27.509Z,11.25
2018-07-16T03:08:27.507Z,11.25
2018-07-16T03:09:27.508Z,11.25
2018-07-16T03:10:27.509Z,11.25
2018-07-16T03:11:27.507Z,11.25
2018-07-16T03:12:27.507Z,11.25
2018-07-16T03:13:27.508Z,11.25
2018-07-16T03:14:27.510Z,16.88
2018-07-16T03:15:27.506Z,16.88
2018-07-16T03:16:27.511Z,16.88
2018-07-16T03:17:27.508Z,16.88
2018-07-16T03:18:27.505Z,16.88
2018-07-16T03:19:27.509Z,16.88
2018-07-16T03:20:27.505Z,22.50
2018-07-16T03:21:27.501Z,22.50
2018-07-16T03:22:27.508Z,22.50
2018-07-16T03:23:27.504Z,22.50
2018-07-16T03:24:27.505Z,22.50
2018-07-16T03:25:27.504Z,22.50
2018-07-16T03:26:27.503Z,28.13
2018-07-16T03:27:27.504Z,28.13
2018-07-16T03:28:27.502Z,28.13
2018-07-16T03:29:27.503Z,28.13
2018-07-16T03:30:27.506Z,28.13
2018-07-16T03:31:27.502Z,28.13
2018-07-16T03:32:27.502Z,28.13
2018-07-16T03:33:27.497Z,33.75
2018-07-16T03:34:27.499Z,33.75
2018-07-16T03:35:27.500Z,33.75
2018-07-16T03:36:27.496Z,39.38
2018-07-16T03:37:27.499Z,45.00
2018-07-16T03:38:27.498Z,50.63
2018-07-16T03:39:27.496Z,56.25
2018-07-16T03:40:27.500Z,73.13
2018-07-16T03:41:27.497Z,90.00
2018-07-16T03:42:27.498Z,106.88
2018-07-16T03:43:27.497Z,123.75
2018-07-16T03:44:27.500Z,135.00
2018-07-16T03:45:27.508Z,151.88
2018-07-16T03:46:27.495Z,151.88
2018-07-16T03:47:27.500Z,157.50
2018-07-16T03:48:27.496Z,163.13
2018-07-16T03:49:27.497Z,163.13
2018-07-16T03:50:27.499Z,168.75
2018-07-16T03:51:27.494Z,174.38
2018-07-16T03:52:27.497Z,180.00
2018-07-16T03:53:27.496Z,180.00
2018-07-16T03:54:27.556Z,185.63
2018-07-16T03:55:27.495Z,191.25
2018-07-16T03:56:27.498Z,196.88
2018-07-16T03:57:27.496Z,196.88
2018-07-16T03:58:27.496Z,202.50
2018-07-16T03:59:27.497Z,208.13
2018-07-16T04:00:27.502Z,208.13
2018-07-16T04:01:27.507Z,213.75
2018-07-16T04:02:27.498Z,219.38
2018-07-16T04:03:27.497Z,219.38
2018-07-16T04:04:27.498Z,225.00
2018-07-16T04:05:27.498Z,230.63
2018-07-16T04:06:27.494Z,230.63
2018-07-16T04:07:27.497Z,236.25
2018-07-16T04:08:27.499Z,241.88
2018-07-16T04:09:27.501Z,247.50
2018-07-16T04:10:27.501Z,247.50
2018-07-16T04:11:27.496Z,253.13
2018-07-16T04:12:27.500Z,258.75
2018-07-16T04:13:27.503Z,258.75
2018-07-16T04:14:27.504Z,264.38
2018-07-16T04:15:27.507Z,264.38
2018-07-16T04:16:27.507Z,270.00
2018-07-16T04:17:27.515Z,275.63
2018-07-16T04:18:27.511Z,275.63
2018-07-16T04:19:27.515Z,281.25
2018-07-16T04:20:27.509Z,281.25
2018-07-16T04:21:27.512Z,286.88
2018-07-16T04:22:27.510Z,286.88
2018-07-16T04:23:27.513Z,292.50
2018-07-16T04:24:27.521Z,292.50
2018-07-16T04:25:27.516Z,298.13
2018-07-16T04:26:27.518Z,298.13
2018-07-16T04:27:27.520Z,303.75
2018-07-16T04:28:27.521Z,303.75
2018-07-16T04:29:27.525Z,309.38
2018-07-16T04:30:27.525Z,309.38
2018-07-16T04:31:27.527Z,315.00
2018-07-16T04:32:27.529Z,315.00
2018-07-16T04:33:27.531Z,320.63
2018-07-16T04:34:27.532Z,320.63
2018-07-16T04:35:27.543Z,326.25
2018-07-16T04:36:27.540Z,326.25
2018-07-16T04:37:27.538Z,331.88
2018-07-16T04:38:27.540Z,331.88
2018-07-16T04:39:27.542Z,331.88
2018-07-16T04:40:27.545Z,337.50
2018-07-16T04:41:27.547Z,337.50
2018-07-16T04:42:27.554Z,343.13
2018-07-16T04:43:27.553Z,343.13
2018-07-16T04:44:27.554Z,343.13
2018-07-16T04:45:27.553Z,348.75
2018-07-16T04:46:27.558Z,348.75
2018-07-16T04:47:27.563Z,348.75
2018-07-16T04:48:27.563Z,354.38
2018-07-16T04:49:27.564Z,354.38
2018-07-16T04:50:27.569Z,354.38
2018-07-16T04:51:27.573Z,360.00
2018-07-16T04:52:27.600Z,360.00
2018-07-16T04:53:27.581Z,360.00
2018-07-16T04:54:27.581Z,365.63
2018-07-16T04:55:27.585Z,365.63
2018-07-16T04:56:27.588Z,365.63
2018-07-16T04:57:27.593Z,365.63
2018-07-16T04:58:27.594Z,371.25
2018-07-16T04:59:27.602Z,371.25
2018-07-16T05:00:27.603Z,371.25
2018-07-16T05:01:27.605Z,371.25
2018-07-16T05:02:27.618Z,376.88
2018-07-16T05:03:27.624Z,376.88
2018-07-16T05:04:27.617Z,376.88
2018-07-16T05:05:27.618Z,376.88
2018-07-16T05:06:27.622Z,382.50
2018-07-16T05:07:27.627Z,382.50
2018-07-16T05:08:27.629Z,382.50
2018-07-16T05:09:27.633Z,388.13
2018-07-16T05:10:27.636Z,388.13
2018-07-16T05:11:27.641Z,388.13
2018-07-16T05:12:27.646Z,388.13
2018-07-16T05:13:27.650Z,388.13
2018-07-16T05:14:27.653Z,388.13
2018-07-16T05:15:27.656Z,393.75
2018-07-16T05:16:27.657Z,393.75
2018-07-16T05:17:27.662Z,393.75
2018-07-16T05:18:27.869Z,393.75
2018-07-16T05:19:27.673Z,393.75
2018-07-16T05:20:27.681Z,399.38
2018-07-16T05:21:27.682Z,399.38
2018-07-16T05:22:27.722Z,399.38
2018-07-16T05:23:27.698Z,399.38
2018-07-16T05:24:27.695Z,399.38
2018-07-16T05:25:27.700Z,399.38
2018-07-16T05:26:27.704Z,405.00
2018-07-16T05:27:27.711Z,405.00
2018-07-16T05:28:27.717Z,405.00
2018-07-16T05:29:27.718Z,405.00
2018-07-16T05:30:27.723Z,405.00
2018-07-16T05:31:27.781Z,405.00
2018-07-16T05:32:27.930Z,410.63
2018-07-16T05:33:27.734Z,410.63
2018-07-16T05:34:27.739Z,410.63
2018-07-16T05:35:27.745Z,410.63
2018-07-16T05:36:27.751Z,410.63
2018-07-16T05:37:27.758Z,410.63
2018-07-16T05:38:27.760Z,410.63
2018-07-16T05:39:27.768Z,416.25
2018-07-16T05:40:27.770Z,416.25
2018-07-16T05:41:27.776Z,416.25
2018-07-16T05:42:27.780Z,421.88
2018-07-16T05:43:27.785Z,421.88
2018-07-16T05:44:27.791Z,421.88
2018-07-16T05:45:27.799Z,421.88
2018-07-16T05:46:27.805Z,421.88
2018-07-16T05:47:27.805Z,427.50
2018-07-16T05:48:27.810Z,427.50
2018-07-16T05:49:27.817Z,427.50
2018-07-16T05:50:27.834Z,427.50
2018-07-16T05:51:27.827Z,433.13
2018-07-16T05:52:27.834Z,433.13
2018-07-16T05:53:27.837Z,433.13
2018-07-16T05:54:27.841Z,438.75
2018-07-16T05:55:27.845Z,438.75
2018-07-16T05:56:27.857Z,444.38
2018-07-16T05:57:27.859Z,444.38
2018-07-16T05:58:27.863Z,444.38
2018-07-16T05:59:27.868Z,450.00
2018-07-16T06:00:27.875Z,450.00
2018-07-16T06:01:27.880Z,450.00
2018-07-16T06:02:27.889Z,455.63
2018-07-16T06:03:27.896Z,461.25
2018-07-16T06:04:27.899Z,466.88
2018-07-16T06:05:27.905Z,466.88
2018-07-16T06:06:27.907Z,472.50
2018-07-16T06:07:27.920Z,478.13
2018-07-16T06:08:27.924Z,483.75
2018-07-16T06:09:27.925Z,495.00
2018-07-16T06:10:27.931Z,511.88
2018-07-16T06:11:27.938Z,534.38
2018-07-16T06:12:27.941Z,601.88
2018-07-16T06:13:27.956Z,1035.00
2018-07-16T06:14:27.958Z,1597.50
2018-07-16T06:15:27.961Z,1794.38
2018-07-16T06:16:27.971Z,1867.50
2018-07-16T06:17:27.975Z,1963.13
2018-07-16T06:18:27.980Z,2025.00
2018-07-16T06:19:27.987Z,2025.00
2018-07-16T06:20:27.994Z,1991.25
2018-07-16T06:21:28.001Z,1980.00
2018-07-16T06:22:28.006Z,1991.25
2018-07-16T06:23:28.014Z,2008.13
2018-07-16T06:24:28.027Z,1996.88
2018-07-16T06:25:28.031Z,1996.88
2018-07-16T06:26:28.032Z,2053.13
2018-07-16T06:27:28.043Z,2098.13
2018-07-16T06:28:28.043Z,2126.25
2018-07-16T06:29:28.051Z,2137.50
2018-07-16T06:30:28.057Z,2154.38
2018-07-16T06:31:28.065Z,2188.13
2018-07-16T06:32:28.089Z,2221.88
2018-07-16T06:33:28.083Z,2238.75
2018-07-16T06:34:28.092Z,2261.25
2018-07-16T06:35:28.095Z,2283.75
2018-07-16T06:36:28.099Z,2334.38
2018-07-16T06:37:28.106Z,2385.00
2018-07-16T06:38:28.113Z,2413.13
2018-07-16T06:39:28.178Z,2418.75
2018-07-16T06:40:28.298Z,2407.50
2018-07-16T06:41:28.527Z,2407.50
2018-07-16T06:42:28.137Z,2413.13
2018-07-16T06:43:28.197Z,2401.88
2018-07-16T06:44:28.150Z,2368.13
2018-07-16T06:45:28.161Z,2356.88
2018-07-16T06:46:28.164Z,2385.00
2018-07-16T06:47:28.175Z,2424.38
2018-07-16T06:48:28.182Z,2452.50
2018-07-16T06:49:28.190Z,2469.38
2018-07-16T06:50:28.197Z,2508.75
2018-07-16T06:51:28.205Z,2514.38
2018-07-16T06:52:28.212Z,2458.13
2018-07-16T06:53:28.215Z,2379.38
2018-07-16T06:54:28.227Z,2340.00
2018-07-16T06:55:28.242Z,2418.75
2018-07-16T06:56:28.243Z,2593.13
2018-07-16T06:57:28.250Z,2621.25
2018-07-16T06:58:28.258Z,2418.75
2018-07-16T06:59:28.267Z,2221.88
2018-07-16T07:00:28.275Z,2160.00
2018-07-16T07:01:28.282Z,2244.38
2018-07-16T07:02:28.288Z,2362.50
2018-07-16T07:03:28.297Z,2458.13
2018-07-16T07:04:28.307Z,2514.38
2018-07-16T07:05:28.315Z,2565.00
2018-07-16T07:06:28.322Z,2570.63
2018-07-16T07:07:28.331Z,2593.13
2018-07-16T07:08:28.337Z,2598.75
2018-07-16T07:09:28.347Z,2610.00
2018-07-16T07:10:28.354Z,2610.00
2018-07-16T07:11:28.361Z,2615.63
2018-07-16T07:12:28.368Z,2660.63
2018-07-16T07:13:28.382Z,2716.88
2018-07-16T07:14:28.390Z,2773.13
2018-07-16T07:15:28.398Z,2801.25
2018-07-16T07:16:28.415Z,2806.88
2018-07-16T07:17:28.417Z,2795.63
2018-07-16T07:18:28.426Z,2790.00
2018-07-16T07:19:28.436Z,2773.13
2018-07-16T07:20:28.442Z,2773.13
2018-07-16T07:21:28.450Z,2745.00
2018-07-16T07:22:28.457Z,2694.38
2018-07-16T07:23:28.469Z,2711.25
2018-07-16T07:24:28.475Z,2728.13
2018-07-16T07:25:28.536Z,2767.50
2018-07-16T07:26:28.492Z,2745.00
2018-07-16T07:27:28.501Z,2773.13
2018-07-16T07:28:28.513Z,2812.50
2018-07-16T07:29:28.520Z,2851.88
2018-07-16T07:30:28.528Z,2885.63
2018-07-16T07:31:28.537Z,2958.75
2018-07-16T07:32:28.551Z,3020.63
2018-07-16T07:33:28.557Z,3076.88
2018-07-16T07:34:28.569Z,3060.00
2018-07-16T07:35:28.582Z,3015.00
2018-07-16T07:36:28.583Z,3003.75
2018-07-16T07:37:28.593Z,3020.63
2018-07-16T07:38:28.611Z,3082.50
2018-07-16T07:39:28.611Z,3127.50
2018-07-16T07:40:28.622Z,3127.50
2018-07-16T07:41:28.631Z,3138.75
2018-07-16T07:42:28.639Z,3189.38
2018-07-16T07:43:28.648Z,3279.38
2018-07-16T07:44:28.658Z,3341.25
2018-07-16T07:45:28.670Z,3330.00
2018-07-16T07:46:28.679Z,3318.75
2018-07-16T07:47:28.690Z,3301.88
2018-07-16T07:48:28.701Z,3273.75
2018-07-16T07:49:28.710Z,3318.75
2018-07-16T07:50:28.719Z,3346.88
2018-07-16T07:51:28.734Z,3363.75
2018-07-16T07:52:28.740Z,3346.88
2018-07-16T07:53:28.751Z,3386.25
2018-07-16T07:54:28.953Z,3470.63
2018-07-16T07:55:28.785Z,3487.50
2018-07-16T07:56:28.785Z,3526.88
2018-07-16T07:57:28.793Z,3571.88
2018-07-16T07:58:28.803Z,3588.75
2018-07-16T07:59:28.812Z,3571.88
2018-07-16T08:00:28.827Z,3543.75
2018-07-16T08:01:28.834Z,3543.75
2018-07-16T08:02:28.846Z,3588.75
2018-07-16T08:03:28.978Z,3549.38
2018-07-16T08:04:28.865Z,3566.25
2018-07-16T08:05:28.878Z,3532.50
2018-07-16T08:06:28.891Z,3526.88
2018-07-16T08:07:28.898Z,3633.75
2018-07-16T08:08:28.906Z,3628.13
2018-07-16T08:09:28.922Z,3605.63
2018-07-16T08:10:28.934Z,3560.63
2018-07-16T08:11:28.946Z,3639.38
2018-07-16T08:12:28.957Z,3684.38
2018-07-16T08:13:28.961Z,3684.38
2018-07-16T08:14:28.977Z,3600.00
2018-07-16T08:15:28.988Z,3526.88
2018-07-16T08:16:29.002Z,3543.75
2018-07-16T08:17:29.012Z,3611.25
2018-07-16T08:18:29.018Z,3656.25
2018-07-16T08:19:29.040Z,3712.50
2018-07-16T08:20:29.047Z,3735.00
2018-07-16T08:21:29.064Z,3785.63
2018-07-16T08:22:29.067Z,3886.88
2018-07-16T08:23:29.079Z,3847.50
2018-07-16T08:24:29.090Z,3740.63
2018-07-16T08:25:29.101Z,3622.50
2018-07-16T08:26:29.112Z,3442.50
2018-07-16T08:27:29.124Z,3425.63
2018-07-16T08:28:29.132Z,3498.75
2018-07-16T08:29:29.146Z,3605.63
2018-07-16T08:30:29.157Z,3740.63
2018-07-16T08:31:29.174Z,3864.38
2018-07-16T08:32:29.184Z,3931.88
2018-07-16T08:33:29.206Z,3943.13
2018-07-16T08:34:29.202Z,3960.00
2018-07-16T08:35:29.214Z,3993.75
2018-07-16T08:36:29.226Z,4038.75
2018-07-16T08:37:29.237Z,4044.38
2018-07-16T08:38:29.245Z,3960.00
2018-07-16T08:39:29.258Z,3937.50
2018-07-16T08:40:29.272Z,3903.75
2018-07-16T08:41:29.286Z,3881.25
2018-07-16T08:42:29.297Z,3920.63
2018-07-16T08:43:29.307Z,3965.63
2018-07-16T08:44:29.318Z,4021.88
2018-07-16T08:45:29.330Z,4072.50
2018-07-16T08:46:29.343Z,4128.75
2018-07-16T08:47:29.356Z,4190.63
2018-07-16T08:48:29.366Z,4241.25
2018-07-16T08:49:29.381Z,4235.63
2018-07-16T08:50:29.393Z,4207.50
2018-07-16T08:51:29.403Z,4246.88
2018-07-16T08:52:29.416Z,4134.38
2018-07-16T08:53:29.427Z,4106.25
2018-07-16T08:54:29.443Z,4066.88
2018-07-16T08:55:29.452Z,4055.63
2018-07-16T08:56:29.467Z,4055.63
2018-07-16T08:57:29.481Z,4005.00
2018-07-16T08:58:29.496Z,4185.00
2018-07-16T08:59:29.504Z,4078.13
2018-07-16T09:00:29.520Z,4111.88
2018-07-16T09:01:29.532Z,4241.25
2018-07-16T09:02:29.541Z,4235.63
2018-07-16T09:03:29.553Z,3510.00
2018-07-16T09:04:29.566Z,1271.25
2018-07-16T09:05:29.579Z,348.75
2018-07-16T09:06:29.595Z,337.50
2018-07-16T09:07:29.604Z,320.63
2018-07-16T09:08:29.614Z,298.13
2018-07-16T09:09:29.625Z,281.25
2018-07-16T09:10:29.636Z,275.63
2018-07-16T09:11:29.646Z,270.00
2018-07-16T09:12:29.659Z,264.38
2018-07-16T09:13:29.733Z,258.75
2018-07-16T09:14:29.679Z,253.13
2018-07-16T09:15:29.689Z,253.13
2018-07-16T09:16:29.698Z,247.50
2018-07-16T09:17:29.708Z,247.50
2018-07-16T09:18:29.723Z,241.88
2018-07-16T09:19:29.727Z,241.88
2018-07-16T09:20:29.734Z,241.88
2018-07-16T09:21:29.744Z,241.88
2018-07-16T09:22:29.752Z,241.88
2018-07-16T09:23:29.759Z,236.25
2018-07-16T09:24:29.770Z,236.25
2018-07-16T09:25:29.799Z,236.25
2018-07-16T09:26:29.783Z,236.25
2018-07-16T09:27:29.792Z,241.88
2018-07-16T09:28:29.799Z,241.88
2018-07-16T09:29:29.808Z,241.88
2018-07-16T09:30:29.815Z,247.50
2018-07-16T09:31:29.821Z,247.50
2018-07-16T09:32:29.828Z,247.50
2018-07-16T09:33:29.837Z,247.50
2018-07-16T09:34:29.858Z,247.50
2018-07-16T09:35:29.849Z,247.50
2018-07-16T09:36:29.857Z,247.50
2018-07-16T09:37:29.864Z,253.13
2018-07-16T09:38:29.901Z,258.75
2018-07-16T09:39:29.877Z,264.38
2018-07-16T09:40:29.884Z,270.00
2018-07-16T09:41:29.895Z,270.00
2018-07-16T09:42:29.896Z,264.38
2018-07-16T09:43:29.902Z,247.50
2018-07-16T09:44:30.047Z,236.25
2018-07-16T09:45:29.916Z,236.25
2018-07-16T09:46:29.921Z,236.25
2018-07-16T09:47:29.928Z,236.25
2018-07-16T09:48:29.933Z,236.25
2018-07-16T09:49:29.944Z,236.25
2018-07-16T09:50:29.943Z,241.88
2018-07-16T09:51:29.951Z,236.25
2018-07-16T09:52:29.957Z,208.13
2018-07-16T09:53:29.966Z,213.75
2018-07-16T09:54:29.968Z,236.25
2018-07-16T09:55:29.974Z,230.63
2018-07-16T09:56:30.073Z,236.25
2018-07-16T09:57:29.987Z,236.25
2018-07-16T09:58:29.993Z,236.25
2018-07-16T09:59:30.002Z,230.63
2018-07-16T10:00:30.006Z,230.63
2018-07-16T10:01:30.013Z,225.00
2018-07-16T10:02:30.015Z,225.00
2018-07-16T10:03:30.021Z,225.00
2018-07-16T10:04:30.027Z,219.38
2018-07-16T10:05:30.033Z,219.38
2018-07-16T10:06:30.041Z,219.38
2018-07-16T10:07:30.044Z,213.75
2018-07-16T10:08:30.136Z,213.75
2018-07-16T10:09:30.055Z,213.75
2018-07-16T10:10:30.058Z,213.75
2018-07-16T10:11:30.068Z,213.75
2018-07-16T10:12:30.072Z,213.75
2018-07-16T10:13:30.076Z,213.75
2018-07-16T10:14:30.081Z,219.38
2018-07-16T10:15:30.084Z,213.75
2018-07-16T10:16:30.093Z,208.13
2018-07-16T10:17:30.094Z,208.13
2018-07-16T10:18:30.101Z,208.13
2018-07-16T10:19:30.106Z,208.13
2018-07-16T10:20:30.174Z,208.13
2018-07-16T10:21:30.120Z,208.13
2018-07-16T10:22:30.123Z,208.13
2018-07-16T10:23:30.126Z,208.13
2018-07-16T10:24:30.136Z,202.50
2018-07-16T10:25:30.139Z,202.50
2018-07-16T10:26:30.147Z,202.50
2018-07-16T10:27:30.149Z,202.50
2018-07-16T10:28:30.155Z,202.50
2018-07-16T10:29:30.162Z,202.50
2018-07-16T10:30:30.168Z,202.50
2018-07-16T10:31:30.174Z,202.50
2018-07-16T10:32:30.177Z,202.50
2018-07-16T10:33:30.183Z,202.50
2018-07-16T10:34:30.187Z,196.88
2018-07-16T10:35:30.192Z,196.88
2018-07-16T10:36:30.197Z,196.88
2018-07-16T10:37:30.203Z,196.88
2018-07-16T10:38:30.211Z,196.88
2018-07-16T10:39:30.229Z,196.88
2018-07-16T10:40:30.219Z,196.88
2018-07-16T10:41:30.224Z,196.88
2018-07-16T10:42:30.227Z,196.88
2018-07-16T10:43:30.235Z,196.88
2018-07-16T10:44:30.239Z,196.88
2018-07-16T10:45:30.250Z,196.88
2018-07-16T10:46:30.252Z,202.50
2018-07-16T10:47:30.254Z,202.50
2018-07-16T10:48:30.258Z,202.50
2018-07-16T10:49:30.270Z,202.50
2018-07-16T10:50:30.269Z,202.50
2018-07-16T10:51:30.274Z,202.50
2018-07-16T10:52:30.280Z,202.50
2018-07-16T10:53:30.285Z,202.50
2018-07-16T10:54:30.292Z,202.50
2018-07-16T10:55:30.299Z,202.50
2018-07-16T10:56:30.301Z,202.50
2018-07-16T10:57:30.311Z,196.88
2018-07-16T10:58:30.315Z,196.88
2018-07-16T10:59:30.322Z,196.88
2018-07-16T11:00:30.328Z,196.88
2018-07-16T11:01:30.328Z,196.88
2018-07-16T11:02:30.331Z,196.88
2018-07-16T11:03:30.336Z,196.88
2018-07-16T11:04:30.339Z,196.88
2018-07-16T11:05:30.383Z,196.88
2018-07-16T11:06:30.353Z,196.88
2018-07-16T11:07:30.358Z,191.25
2018-07-16T11:08:30.362Z,191.25
2018-07-16T11:09:30.368Z,191.25
2018-07-16T11:10:30.372Z,196.88
2018-07-16T11:11:30.378Z,196.88
2018-07-16T11:12:30.384Z,196.88
2018-07-16T11:13:30.390Z,191.25
2018-07-16T11:14:30.393Z,191.25
2018-07-16T11:15:30.400Z,191.25
2018-07-16T11:16:30.406Z,185.63
2018-07-16T11:17:30.419Z,185.63
2018-07-16T11:18:30.414Z,185.63
2018-07-16T11:19:30.423Z,185.63
2018-07-16T11:20:30.431Z,185.63
2018-07-16T11:21:30.434Z,185.63
2018-07-16T11:22:30.436Z,185.63
2018-07-16T11:23:30.445Z,185.63
2018-07-16T11:24:30.452Z,185.63
2018-07-16T11:25:30.451Z,191.25
2018-07-16T11:26:30.457Z,191.25
2018-07-16T11:27:30.463Z,191.25
2018-07-16T11:28:30.466Z,191.25
2018-07-16T11:29:30.476Z,185.63
2018-07-16T11:30:30.479Z,185.63
2018-07-16T11:31:30.483Z,185.63
2018-07-16T11:32:30.490Z,185.63
2018-07-16T11:33:30.496Z,185.63
2018-07-16T11:34:30.501Z,185.63
2018-07-16T11:35:30.609Z,185.63
2018-07-16T11:36:30.512Z,185.63
2018-07-16T11:37:30.522Z,185.63
2018-07-16T11:38:30.524Z,185.63
2018-07-16T11:39:30.531Z,185.63
2018-07-16T11:40:30.534Z,185.63
2018-07-16T11:41:30.535Z,185.63
2018-07-16T11:42:30.545Z,185.63
2018-07-16T11:43:30.550Z,185.63
2018-07-16T11:44:30.554Z,185.63
2018-07-16T11:45:30.561Z,185.63
2018-07-16T11:46:30.564Z,185.63
2018-07-16T11:47:30.574Z,185.63
2018-07-16T11:48:30.577Z,185.63
2018-07-16T11:49:30.583Z,185.63
2018-07-16T11:50:30.598Z,180.00
2018-07-16T11:51:30.594Z,180.00
2018-07-16T11:52:30.600Z,180.00
2018-07-16T11:53:30.603Z,180.00
2018-07-16T11:54:30.616Z,180.00
2018-07-16T11:55:30.614Z,185.63
2018-07-16T11:56:30.619Z,185.63
2018-07-16T11:57:30.626Z,180.00
2018-07-16T11:58:30.631Z,180.00
2018-07-16T11:59:30.636Z,180.00
2018-07-16T12:00:30.643Z,191.25
2018-07-16T12:01:30.648Z,196.88
2018-07-16T12:02:30.653Z,191.25
2018-07-16T12:03:30.698Z,185.63
2018-07-16T12:04:30.663Z,185.63
2018-07-16T12:05:30.669Z,185.63
2018-07-16T12:06:30.675Z,180.00
2018-07-16T12:07:30.681Z,185.63
2018-07-16T12:08:30.686Z,185.63
2018-07-16T12:09:30.693Z,185.63
2018-07-16T12:10:30.698Z,191.25
2018-07-16T12:11:30.703Z,185.63
2018-07-16T12:12:30.770Z,180.00
2018-07-16T12:13:30.717Z,180.00
2018-07-16T12:14:30.723Z,129.38
2018-07-16T12:15:30.730Z,129.38
2018-07-16T12:16:30.737Z,135.00
2018-07-16T12:17:30.744Z,174.38
2018-07-16T12:18:30.742Z,180.00
2018-07-16T12:19:30.747Z,180.00
2018-07-16T12:20:30.830Z,180.00
2018-07-16T12:21:30.759Z,180.00
2018-07-16T12:22:30.763Z,180.00
2018-07-16T12:23:30.769Z,180.00
2018-07-16T12:24:30.775Z,180.00
2018-07-16T12:25:30.786Z,180.00
2018-07-16T12:26:30.786Z,180.00
2018-07-16T12:27:30.792Z,185.63
2018-07-16T12:28:30.798Z,185.63
2018-07-16T12:29:30.804Z,191.25
2018-07-16T12:30:30.810Z,196.88
2018-07-16T12:31:30.822Z,196.88
2018-07-16T12:32:30.822Z,191.25
2018-07-16T12:33:30.826Z,196.88
2018-07-16T12:34:30.830Z,213.75
2018-07-16T12:35:30.835Z,241.88